sensor_id;sensor_type;location;lat;lon;timestamp;pressure;altitude;pressure_sealevel;temperature;humidity
58739;BME280;44512;53.046;18.604;2022-08-02T00:07:27;101630.70;;;22.28;52.52
58739;BME280;44512;53.046;18.604;2022-08-02T00:17:55;101646.57;;;22.21;52.69
58739;BME280;44512;53.046;18.604;2022-08-02T00:28:25;101649.26;;;22.16;52.74
58739;BME280;44512;53.046;18.604;2022-08-02T00:38:52;101648.10;;;22.12;52.74
58739;BME280;44512;53.046;18.604;2022-08-02T00:49:20;101660.12;;;22.06;52.73
58739;BME280;44512;53.046;18.604;2022-08-02T00:59:48;101669.41;;;22.00;52.74
58739;BME280;44512;53.046;18.604;2022-08-02T01:10:17;101671.84;;;21.96;52.73
58739;BME280;44512;53.046;18.604;2022-08-02T01:41:43;101678.55;;;21.83;52.99
58739;BME280;44512;53.046;18.604;2022-08-02T01:52:10;101693.91;;;21.79;53.14
58739;BME280;44512;53.046;18.604;2022-08-02T02:02:41;101697.18;;;21.76;53.27
58739;BME280;44512;53.046;18.604;2022-08-02T02:13:10;101696.25;;;21.71;53.47
58739;BME280;44512;53.046;18.604;2022-08-02T02:23:35;101694.27;;;21.66;53.58
58739;BME280;44512;53.046;18.604;2022-08-02T02:34:10;101689.24;;;21.63;53.79
58739;BME280;44512;53.046;18.604;2022-08-02T02:44:33;101688.68;;;21.61;53.86
58739;BME280;44512;53.046;18.604;2022-08-02T02:55:01;101692.41;;;21.55;53.98
58739;BME280;44512;53.046;18.604;2022-08-02T03:05:28;101717.11;;;21.50;53.94
58739;BME280;44512;53.046;18.604;2022-08-02T03:15:58;101695.99;;;21.39;53.83
58739;BME280;44512;53.046;18.604;2022-08-02T03:26:25;101707.74;;;21.34;53.79
58739;BME280;44512;53.046;18.604;2022-08-02T03:36:55;101711.84;;;21.31;53.66
58739;BME280;44512;53.046;18.604;2022-08-02T03:47:23;101732.09;;;21.25;53.82
58739;BME280;44512;53.046;18.604;2022-08-02T03:57:50;101741.44;;;21.24;54.06
58739;BME280;44512;53.046;18.604;2022-08-02T04:08:19;101756.26;;;21.23;54.36
58739;BME280;44512;53.046;18.604;2022-08-02T04:18:55;101766.45;;;21.23;54.70
58739;BME280;44512;53.046;18.604;2022-08-02T04:29:20;101787.88;;;21.21;55.01
58739;BME280;44512;53.046;18.604;2022-08-02T04:39:44;101793.88;;;21.18;55.27
58739;BME280;44512;53.046;18.604;2022-08-02T04:50:12;101810.64;;;21.16;55.32
58739;BME280;44512;53.046;18.604;2022-08-02T05:00:40;101811.12;;;21.13;55.38
58739;BME280;44512;53.046;18.604;2022-08-02T05:11:09;101830.65;;;21.12;55.59
58739;BME280;44512;53.046;18.604;2022-08-02T05:21:37;101840.57;;;21.13;55.84
58739;BME280;44512;53.046;18.604;2022-08-02T05:32:06;101857.70;;;21.15;56.10
58739;BME280;44512;53.046;18.604;2022-08-02T05:42:33;101855.77;;;21.15;56.13
58739;BME280;44512;53.046;18.604;2022-08-02T05:53:09;101877.19;;;21.13;56.03
58739;BME280;44512;53.046;18.604;2022-08-02T06:03:33;101891.78;;;21.14;56.04
58739;BME280;44512;53.046;18.604;2022-08-02T06:13:59;101908.09;;;21.15;55.87
58739;BME280;44512;53.046;18.604;2022-08-02T06:24:28;101924.11;;;21.18;55.80
58739;BME280;44512;53.046;18.604;2022-08-02T06:34:55;101918.96;;;21.22;54.87
58739;BME280;44512;53.046;18.604;2022-08-02T06:45:23;101922.91;;;21.26;54.46
58739;BME280;44512;53.046;18.604;2022-08-02T06:55:52;101931.06;;;21.32;54.21
58739;BME280;44512;53.046;18.604;2022-08-02T07:06:20;101931.99;;;21.38;54.32
58739;BME280;44512;53.046;18.604;2022-08-02T07:16:48;101936.31;;;21.46;54.21
58739;BME280;44512;53.046;18.604;2022-08-02T07:27:17;101938.91;;;21.52;54.21
58739;BME280;44512;53.046;18.604;2022-08-02T07:37:45;101931.34;;;21.59;53.97
58739;BME280;44512;53.046;18.604;2022-08-02T07:48:13;101927.84;;;21.64;53.99
58739;BME280;44512;53.046;18.604;2022-08-02T07:58:42;101928.55;;;21.71;53.51
58739;BME280;44512;53.046;18.604;2022-08-02T08:09:10;101928.41;;;21.78;53.02
58739;BME280;44512;53.046;18.604;2022-08-02T08:19:38;101933.75;;;21.84;52.69
58739;BME280;44512;53.046;18.604;2022-08-02T08:30:08;101942.13;;;21.90;52.34
58739;BME280;44512;53.046;18.604;2022-08-02T08:40:36;101938.37;;;21.96;51.82
58739;BME280;44512;53.046;18.604;2022-08-02T08:51:10;101947.84;;;22.00;50.98
58739;BME280;44512;53.046;18.604;2022-08-02T09:01:33;101935.80;;;22.06;51.05
58739;BME280;44512;53.046;18.604;2022-08-02T09:12:13;101930.51;;;22.16;50.45
58739;BME280;44512;53.046;18.604;2022-08-02T09:22:29;101928.20;;;22.25;49.87
58739;BME280;44512;53.046;18.604;2022-08-02T09:32:57;101922.01;;;22.34;49.83
58739;BME280;44512;53.046;18.604;2022-08-02T09:43:35;101912.24;;;22.44;48.92
58739;BME280;44512;53.046;18.604;2022-08-02T09:53:57;101919.25;;;22.51;46.43
58739;BME280;44512;53.046;18.604;2022-08-02T10:04:24;101911.40;;;22.60;45.25
58739;BME280;44512;53.046;18.604;2022-08-02T10:14:51;101909.28;;;22.67;45.60
58739;BME280;44512;53.046;18.604;2022-08-02T10:25:20;101897.30;;;22.78;43.42
58739;BME280;44512;53.046;18.604;2022-08-02T10:35:50;101897.25;;;22.90;43.03
58739;BME280;44512;53.046;18.604;2022-08-02T11:02:04;101899.01;;;23.18;44.07
58739;BME280;44512;53.046;18.604;2022-08-02T11:12:30;101893.62;;;23.28;44.04
58739;BME280;44512;53.046;18.604;2022-08-02T11:33:32;101869.66;;;23.61;43.75
58739;BME280;44512;53.046;18.604;2022-08-02T11:43:55;101879.81;;;23.77;43.57
58739;BME280;44512;53.046;18.604;2022-08-02T11:54:26;101865.07;;;23.94;43.05
58739;BME280;44512;53.046;18.604;2022-08-02T12:05:02;101859.09;;;24.07;43.39
58739;BME280;44512;53.046;18.604;2022-08-02T12:36:23;101852.27;;;24.52;42.64
58739;BME280;44512;53.046;18.604;2022-08-02T12:57:16;101870.67;;;24.73;41.82
58739;BME280;44512;53.046;18.604;2022-08-02T13:07:42;101860.47;;;24.79;41.58
58739;BME280;44512;53.046;18.604;2022-08-02T13:18:10;101845.07;;;24.98;40.50
58739;BME280;44512;53.046;18.604;2022-08-02T13:28:39;101849.59;;;25.14;39.88
58739;BME280;44512;53.046;18.604;2022-08-02T13:39:07;101838.28;;;25.31;38.37
58739;BME280;44512;53.046;18.604;2022-08-02T13:49:37;101827.23;;;25.41;39.56
58739;BME280;44512;53.046;18.604;2022-08-02T14:00:05;101818.93;;;25.46;39.54
58739;BME280;44512;53.046;18.604;2022-08-02T14:10:32;101821.73;;;25.62;37.46
58739;BME280;44512;53.046;18.604;2022-08-02T14:21:00;101824.56;;;25.77;38.21
58739;BME280;44512;53.046;18.604;2022-08-02T14:31:29;101815.70;;;26.01;36.44
58739;BME280;44512;53.046;18.604;2022-08-02T14:41:57;101811.20;;;26.40;36.30
58739;BME280;44512;53.046;18.604;2022-08-02T14:52:25;101788.07;;;26.81;35.11
58739;BME280;44512;53.046;18.604;2022-08-02T15:03:02;101802.63;;;27.22;34.03
58739;BME280;44512;53.046;18.604;2022-08-02T15:13:22;101806.85;;;27.59;32.51
58739;BME280;44512;53.046;18.604;2022-08-02T15:23:50;101791.61;;;27.90;32.80
58739;BME280;44512;53.046;18.604;2022-08-02T15:34:19;101791.16;;;28.12;32.04
58739;BME280;44512;53.046;18.604;2022-08-02T15:44:47;101795.59;;;28.42;31.51
58739;BME280;44512;53.046;18.604;2022-08-02T15:55:16;101788.85;;;28.72;30.98
58739;BME280;44512;53.046;18.604;2022-08-02T16:05:44;101797.75;;;28.98;29.77
58739;BME280;44512;53.046;18.604;2022-08-02T16:16:12;101791.00;;;29.23;29.11
58739;BME280;44512;53.046;18.604;2022-08-02T16:26:40;101784.22;;;29.48;28.12
58739;BME280;44512;53.046;18.604;2022-08-02T16:37:09;101782.80;;;29.70;27.57
58739;BME280;44512;53.046;18.604;2022-08-02T16:47:37;101783.83;;;30.06;26.59
58739;BME280;44512;53.046;18.604;2022-08-02T16:58:06;101788.48;;;30.30;25.85
58739;BME280;44512;53.046;18.604;2022-08-02T17:08:34;101794.85;;;30.17;25.04
58739;BME280;44512;53.046;18.604;2022-08-02T17:19:03;101806.52;;;29.86;24.75
58739;BME280;44512;53.046;18.604;2022-08-02T17:29:30;101796.20;;;29.49;24.35
58739;BME280;44512;53.046;18.604;2022-08-02T17:39:59;101805.31;;;29.17;24.69
58739;BME280;44512;53.046;18.604;2022-08-02T17:50:27;101808.41;;;28.91;24.58
58739;BME280;44512;53.046;18.604;2022-08-02T18:00:56;101814.86;;;28.63;24.48
58739;BME280;44512;53.046;18.604;2022-08-02T18:11:24;101822.62;;;28.42;24.49
58739;BME280;44512;53.046;18.604;2022-08-02T18:21:52;101819.16;;;28.21;24.83
58739;BME280;44512;53.046;18.604;2022-08-02T18:32:20;101823.79;;;28.01;25.54
58739;BME280;44512;53.046;18.604;2022-08-02T18:42:49;101838.98;;;27.80;27.06
58739;BME280;44512;53.046;18.604;2022-08-02T18:53:17;101838.60;;;27.52;28.34
58739;BME280;44512;53.046;18.604;2022-08-02T19:03:46;101851.01;;;27.21;28.96
58739;BME280;44512;53.046;18.604;2022-08-02T19:14:15;101851.11;;;26.85;29.14
58739;BME280;44512;53.046;18.604;2022-08-02T19:24:42;101853.42;;;26.53;29.51
58739;BME280;44512;53.046;18.604;2022-08-02T19:35:12;101846.22;;;26.21;30.12
58739;BME280;44512;53.046;18.604;2022-08-02T19:45:39;101855.37;;;25.96;31.19
58739;BME280;44512;53.046;18.604;2022-08-02T19:56:07;101850.04;;;25.69;32.12
58739;BME280;44512;53.046;18.604;2022-08-02T20:06:35;101843.31;;;25.39;32.28
58739;BME280;44512;53.046;18.604;2022-08-02T20:17:04;101843.20;;;25.09;32.82
58739;BME280;44512;53.046;18.604;2022-08-02T20:27:32;101843.87;;;24.84;33.77
58739;BME280;44512;53.046;18.604;2022-08-02T20:38:00;101850.09;;;24.59;34.11
58739;BME280;44512;53.046;18.604;2022-08-02T20:48:29;101859.64;;;24.36;34.39
58739;BME280;44512;53.046;18.604;2022-08-02T20:58:57;101849.26;;;24.21;35.18
58739;BME280;44512;53.046;18.604;2022-08-02T21:09:25;101840.83;;;24.06;35.99
58739;BME280;44512;53.046;18.604;2022-08-02T21:19:54;101846.74;;;23.87;36.71
58739;BME280;44512;53.046;18.604;2022-08-02T21:30:23;101848.23;;;23.68;37.14
58739;BME280;44512;53.046;18.604;2022-08-02T21:40:50;101847.45;;;23.51;37.54
58739;BME280;44512;53.046;18.604;2022-08-02T21:51:19;101845.55;;;23.29;37.91
58739;BME280;44512;53.046;18.604;2022-08-02T22:01:47;101858.68;;;23.17;38.42
58739;BME280;44512;53.046;18.604;2022-08-02T22:12:16;101856.35;;;23.09;39.19
58739;BME280;44512;53.046;18.604;2022-08-02T22:22:44;101863.66;;;22.98;39.85
58739;BME280;44512;53.046;18.604;2022-08-02T22:33:14;101867.62;;;22.85;40.25
58739;BME280;44512;53.046;18.604;2022-08-02T22:43:41;101880.38;;;22.70;40.32
58739;BME280;44512;53.046;18.604;2022-08-02T22:54:09;101890.41;;;22.59;41.02
58739;BME280;44512;53.046;18.604;2022-08-02T23:04:37;101887.23;;;22.50;41.62
58739;BME280;44512;53.046;18.604;2022-08-02T23:15:07;101888.91;;;22.34;42.16
58739;BME280;44512;53.046;18.604;2022-08-02T23:25:34;101887.91;;;22.24;42.56
58739;BME280;44512;53.046;18.604;2022-08-02T23:36:02;101890.24;;;22.15;42.97
58739;BME280;44512;53.046;18.604;2022-08-02T23:46:31;101891.95;;;22.04;43.49
58739;BME280;44512;53.046;18.604;2022-08-02T23:56:59;101878.48;;;21.91;43.74
